createdAt,value
2018-12-08T00:00:39.711Z,8.44
2018-12-08T00:03:08.473Z,8.38
2018-12-08T00:05:37.207Z,8.31
2018-12-08T00:08:05.939Z,8.21
2018-12-08T00:10:34.631Z,8.15
2018-12-08T00:13:03.239Z,8.15
2018-12-08T00:15:32.075Z,8.12
2018-12-08T00:18:00.733Z,8.05
2018-12-08T00:20:29.439Z,8.11
2018-12-08T00:22:58.283Z,8.07
2018-12-08T00:25:26.911Z,8.07
2018-12-08T00:27:55.944Z,8.09
2018-12-08T00:31:33.500Z,8.04
2018-12-08T00:34:02.221Z,7.99
2018-12-08T00:36:30.855Z,7.90
2018-12-08T00:38:59.615Z,7.98
2018-12-08T00:41:28.235Z,8.03
2018-12-08T00:43:57.023Z,8.03
2018-12-08T00:46:25.972Z,7.96
2018-12-08T00:48:54.615Z,7.95
2018-12-08T00:51:23.284Z,7.96
2018-12-08T00:53:51.935Z,7.91
2018-12-08T00:56:20.779Z,7.94
2018-12-08T00:58:49.687Z,8.01
2018-12-08T01:01:18.336Z,7.98
2018-12-08T01:03:47.140Z,7.94
2018-12-08T01:06:15.848Z,7.85
2018-12-08T01:08:44.517Z,7.88
2018-12-08T01:11:13.148Z,7.85
2018-12-08T01:13:41.768Z,7.79
2018-12-08T01:16:10.511Z,7.80
2018-12-08T01:18:39.329Z,7.74
2018-12-08T01:21:07.960Z,7.72
2018-12-08T01:23:36.603Z,7.71
2018-12-08T01:26:05.324Z,7.77
2018-12-08T01:28:33.956Z,7.62
2018-12-08T01:31:02.795Z,7.65
2018-12-08T01:33:31.502Z,7.61
2018-12-08T01:36:00.358Z,7.50
2018-12-08T01:38:29.052Z,7.57
2018-12-08T01:40:57.653Z,7.46
2018-12-08T01:43:26.396Z,7.43
2018-12-08T01:45:55.055Z,7.58
2018-12-08T01:48:23.747Z,7.40
2018-12-08T01:50:52.414Z,7.52
2018-12-08T01:53:21.096Z,7.47
2018-12-08T01:55:49.793Z,7.35
2018-12-08T01:58:18.496Z,7.40
2018-12-08T02:00:47.395Z,7.43
2018-12-08T02:03:16.136Z,7.39
2018-12-08T02:05:44.858Z,7.29
2018-12-08T02:08:13.523Z,7.39
2018-12-08T02:10:42.219Z,7.43
2018-12-08T02:13:10.931Z,7.30
2018-12-08T02:15:39.579Z,7.23
2018-12-08T02:18:08.254Z,7.33
2018-12-08T02:20:37.006Z,7.28
2018-12-08T02:23:05.758Z,7.43
2018-12-08T02:25:34.501Z,7.35
2018-12-08T02:28:03.339Z,7.35
2018-12-08T02:30:32.018Z,7.30
2018-12-08T02:33:00.700Z,7.20
2018-12-08T02:35:29.482Z,7.13
2018-12-08T02:37:58.290Z,7.16
2018-12-08T02:40:27.042Z,7.08
2018-12-08T02:42:55.808Z,7.16
2018-12-08T02:45:24.446Z,7.04
2018-12-08T02:47:53.071Z,7.06
2018-12-08T02:50:21.912Z,6.91
2018-12-08T02:52:50.685Z,6.89
2018-12-08T02:55:19.591Z,6.89
2018-12-08T02:57:48.627Z,6.72
2018-12-08T03:00:17.328Z,6.75
2018-12-08T03:02:46.117Z,6.70
2018-12-08T03:05:14.903Z,6.73
2018-12-08T03:07:43.755Z,6.65
2018-12-08T03:10:12.511Z,6.62
2018-12-08T03:12:41.207Z,6.58
2018-12-08T03:15:10.210Z,6.65
2018-12-08T03:17:39.471Z,6.59
2018-12-08T03:20:08.521Z,6.60
2018-12-08T03:22:37.203Z,6.55
2018-12-08T03:25:06.408Z,6.62
2018-12-08T03:27:35.012Z,6.56
2018-12-08T03:30:03.811Z,6.51
2018-12-08T03:32:32.449Z,6.58
2018-12-08T03:35:01.398Z,6.71
2018-12-08T03:37:30.013Z,6.55
2018-12-08T03:39:58.709Z,6.63
2018-12-08T03:42:27.877Z,6.65
2018-12-08T03:44:56.989Z,6.60
2018-12-08T03:47:25.720Z,6.55
2018-12-08T03:49:54.332Z,6.60
2018-12-08T03:52:22.926Z,6.69
2018-12-08T03:54:51.667Z,6.75
2018-12-08T03:57:20.251Z,6.80
2018-12-08T03:59:48.929Z,6.68
2018-12-08T04:02:17.628Z,6.74
2018-12-08T04:04:46.466Z,6.80
2018-12-08T04:07:15.124Z,6.84
2018-12-08T04:09:43.789Z,6.67
2018-12-08T04:12:12.571Z,6.73
2018-12-08T04:14:41.439Z,6.67
2018-12-08T04:17:10.198Z,6.66
2018-12-08T04:19:38.964Z,6.75
2018-12-08T04:22:07.670Z,6.71
2018-12-08T04:24:36.309Z,6.76
2018-12-08T04:27:04.890Z,6.68
2018-12-08T04:29:33.593Z,6.78
2018-12-08T04:32:02.343Z,6.80
2018-12-08T04:34:31.040Z,6.70
2018-12-08T04:36:59.816Z,6.76
2018-12-08T04:39:28.729Z,6.80
2018-12-08T04:41:57.466Z,6.79
2018-12-08T04:44:26.599Z,6.85
2018-12-08T04:46:55.527Z,6.85
2018-12-08T04:49:24.409Z,6.82
2018-12-08T04:51:53.114Z,6.70
2018-12-08T04:54:21.760Z,6.62
2018-12-08T04:56:50.547Z,6.56
2018-12-08T04:59:19.289Z,6.53
2018-12-08T05:01:47.935Z,6.60
2018-12-08T05:04:16.820Z,6.63
2018-12-08T05:06:45.599Z,6.72
2018-12-08T05:09:14.391Z,6.67
2018-12-08T05:11:43.081Z,6.67
2018-12-08T05:14:11.716Z,6.78
2018-12-08T05:16:40.496Z,6.67
2018-12-08T05:19:09.290Z,6.81
2018-12-08T05:21:38.080Z,6.64
2018-12-08T05:24:07.025Z,6.63
2018-12-08T05:26:35.823Z,6.62
2018-12-08T05:29:04.646Z,6.60
2018-12-08T05:31:33.355Z,6.69
2018-12-08T05:34:02.151Z,6.65
2018-12-08T05:36:30.901Z,6.60
2018-12-08T05:38:59.642Z,6.59
2018-12-08T05:41:28.301Z,6.61
2018-12-08T05:43:56.931Z,6.54
2018-12-08T05:46:25.648Z,6.46
2018-12-08T05:48:54.670Z,6.56
2018-12-08T05:51:23.364Z,6.52
2018-12-08T05:53:52.048Z,6.55
2018-12-08T05:56:20.707Z,6.24
2018-12-08T05:58:49.323Z,6.26
2018-12-08T06:01:18.168Z,6.10
2018-12-08T06:03:46.770Z,6.07
2018-12-08T06:06:15.504Z,6.14
2018-12-08T06:08:44.228Z,6.07
2018-12-08T06:11:12.809Z,6.11
2018-12-08T06:13:41.531Z,5.99
2018-12-08T06:16:10.124Z,5.83
2018-12-08T06:18:38.776Z,5.97
2018-12-08T06:21:07.435Z,5.95
2018-12-08T06:23:36.224Z,5.78
2018-12-08T06:26:10.933Z,5.85
2018-12-08T06:28:40.969Z,5.76
2018-12-08T06:31:09.685Z,5.94
2018-12-08T06:33:38.285Z,5.75
2018-12-08T06:36:06.960Z,6.05
2018-12-08T06:38:35.571Z,5.86
2018-12-08T06:41:04.309Z,5.80
2018-12-08T06:43:32.943Z,5.87
2018-12-08T06:46:01.703Z,5.85
2018-12-08T06:48:30.522Z,5.83
2018-12-08T06:50:59.111Z,5.93
2018-12-08T06:53:27.904Z,6.00
2018-12-08T06:55:56.541Z,6.07
2018-12-08T06:58:25.149Z,5.88
2018-12-08T07:00:54.018Z,5.84
2018-12-08T07:03:22.686Z,5.99
2018-12-08T07:05:51.311Z,5.94
2018-12-08T07:08:20.018Z,5.92
2018-12-08T07:10:48.668Z,5.94
2018-12-08T07:13:17.398Z,6.09
2018-12-08T07:15:46.020Z,6.09
2018-12-08T07:18:14.700Z,6.12
2018-12-08T07:20:43.441Z,6.09
2018-12-08T07:23:12.107Z,6.06
2018-12-08T07:25:41.037Z,6.08
2018-12-08T07:28:09.655Z,6.10
2018-12-08T07:30:38.330Z,6.20
2018-12-08T07:33:07.062Z,6.25
2018-12-08T07:35:35.680Z,6.28
2018-12-08T07:38:04.360Z,6.30
2018-12-08T07:40:33.046Z,6.29
2018-12-08T07:43:01.658Z,6.28
2018-12-08T07:45:30.280Z,6.43
2018-12-08T07:47:58.877Z,6.41
2018-12-08T07:50:27.579Z,6.46
2018-12-08T07:52:56.784Z,6.47
2018-12-08T07:55:25.459Z,6.42
2018-12-08T07:57:54.107Z,6.64
2018-12-08T08:00:22.784Z,6.52
2018-12-08T08:02:51.510Z,6.70
2018-12-08T08:05:20.112Z,6.81
2018-12-08T08:07:48.783Z,6.82
2018-12-08T08:10:17.593Z,6.84
2018-12-08T08:12:46.225Z,6.96
2018-12-08T08:15:14.920Z,6.70
2018-12-08T08:17:43.596Z,6.90
2018-12-08T08:20:12.531Z,6.97
2018-12-08T08:22:41.120Z,6.99
2018-12-08T08:25:11.694Z,7.08
2018-12-08T08:27:40.323Z,6.93
2018-12-08T08:30:11.117Z,6.94
2018-12-08T08:32:39.822Z,6.90
2018-12-08T08:35:09.119Z,6.95
2018-12-08T08:37:37.716Z,6.88
2018-12-08T08:40:08.512Z,7.05
2018-12-08T08:42:37.224Z,6.81
2018-12-08T08:45:06.639Z,6.85
2018-12-08T08:47:35.271Z,7.02
2018-12-08T08:50:05.123Z,7.04
2018-12-08T08:52:33.954Z,6.82
2018-12-08T08:55:02.603Z,6.80
2018-12-08T08:57:31.384Z,7.22
2018-12-08T09:00:00.019Z,7.14
2018-12-08T09:02:28.779Z,6.92
2018-12-08T09:04:57.375Z,7.13
2018-12-08T09:07:26.125Z,7.06
2018-12-08T09:09:55.538Z,7.19
2018-12-08T09:12:24.394Z,7.23
2018-12-08T09:14:53.020Z,7.28
2018-12-08T09:17:21.648Z,7.39
2018-12-08T09:19:50.219Z,7.44
2018-12-08T09:22:18.896Z,7.40
2018-12-08T09:24:47.510Z,7.69
2018-12-08T09:27:16.162Z,7.45
2018-12-08T09:29:44.848Z,7.23
2018-12-08T09:32:13.540Z,7.36
2018-12-08T09:34:42.168Z,7.49
2018-12-08T09:37:10.795Z,7.31
2018-12-08T09:39:39.555Z,7.33
2018-12-08T09:42:08.227Z,7.29
2018-12-08T09:44:36.848Z,7.31
2018-12-08T09:47:05.553Z,7.48
2018-12-08T09:49:34.224Z,7.39
2018-12-08T09:52:02.850Z,7.64
2018-12-08T09:54:31.539Z,7.61
2018-12-08T09:57:00.159Z,7.75
2018-12-08T09:59:28.739Z,7.56
2018-12-08T10:01:57.405Z,7.43
2018-12-08T10:04:26.005Z,7.51
2018-12-08T10:06:54.822Z,7.53
2018-12-08T10:09:23.527Z,7.57
2018-12-08T10:11:52.396Z,7.64
2018-12-08T10:14:21.007Z,7.40
2018-12-08T10:16:49.643Z,7.48
2018-12-08T10:19:18.243Z,7.60
2018-12-08T10:21:46.868Z,7.50
2018-12-08T10:24:16.108Z,7.49
2018-12-08T10:26:44.744Z,7.52
2018-12-08T10:29:13.401Z,7.46
2018-12-08T10:31:42.055Z,7.58
2018-12-08T10:34:10.647Z,7.47
2018-12-08T10:36:39.411Z,7.59
2018-12-08T10:39:08.971Z,7.61
2018-12-08T10:41:37.822Z,7.80
2018-12-08T10:44:06.681Z,7.79
2018-12-08T10:46:35.296Z,7.73
2018-12-08T10:49:03.957Z,7.72
2018-12-08T10:51:32.650Z,7.67
2018-12-08T10:54:01.248Z,7.76
2018-12-08T10:56:29.875Z,7.84
2018-12-08T10:58:58.527Z,7.70
2018-12-08T11:02:30.114Z,7.70
2018-12-08T11:04:58.840Z,7.88
2018-12-08T11:07:27.548Z,7.85
2018-12-08T11:09:56.203Z,7.84
2018-12-08T11:12:24.821Z,7.76
2018-12-08T11:15:00.451Z,7.78
2018-12-08T11:17:25.858Z,7.77
2018-12-08T11:19:54.503Z,8.04
2018-12-08T11:22:23.117Z,7.85
2018-12-08T11:24:51.753Z,7.89
2018-12-08T11:27:26.691Z,7.79
2018-12-08T11:29:55.318Z,7.87
2018-12-08T11:32:24.053Z,7.70
2018-12-08T11:34:52.772Z,7.67
2018-12-08T11:37:21.547Z,7.48
2018-12-08T11:39:50.275Z,7.36
2018-12-08T11:42:18.915Z,7.34
2018-12-08T11:44:47.959Z,7.29
2018-12-08T11:47:16.665Z,7.19
2018-12-08T11:49:45.336Z,7.09
2018-12-08T11:52:13.939Z,7.13
2018-12-08T11:54:42.548Z,7.21
2018-12-08T11:57:11.716Z,7.12
2018-12-08T11:59:40.376Z,7.03
2018-12-08T12:02:16.319Z,7.03
2018-12-08T12:04:39.802Z,7.05
2018-12-08T12:07:08.471Z,7.27
2018-12-08T12:09:37.142Z,7.23
2018-12-08T12:12:05.818Z,7.52
2018-12-08T12:14:47.604Z,7.77
2018-12-08T12:17:16.549Z,7.61
2018-12-08T12:19:45.280Z,7.86
2018-12-08T12:22:14.045Z,8.00
2018-12-08T12:24:42.820Z,7.97
2018-12-08T12:27:11.469Z,7.95
2018-12-08T12:29:40.084Z,8.02
2018-12-08T12:32:08.691Z,7.74
2018-12-08T12:34:37.387Z,7.81
2018-12-08T12:37:06.021Z,8.05
2018-12-08T12:39:34.706Z,7.89
2018-12-08T12:42:04.483Z,7.87
2018-12-08T12:44:33.428Z,8.03
2018-12-08T12:47:02.111Z,8.31
2018-12-08T12:49:30.727Z,8.49
2018-12-08T12:51:59.356Z,8.30
2018-12-08T12:54:27.995Z,8.11
2018-12-08T12:56:56.638Z,7.90
2018-12-08T12:59:25.627Z,7.87
2018-12-08T13:01:54.523Z,7.87
2018-12-08T13:04:23.223Z,7.80
2018-12-08T13:06:51.939Z,7.61
2018-12-08T13:09:20.587Z,7.61
2018-12-08T13:11:49.856Z,7.67
2018-12-08T13:14:18.527Z,7.80
2018-12-08T13:16:47.138Z,7.87
2018-12-08T13:19:16.023Z,7.72
2018-12-08T13:21:44.661Z,7.52
2018-12-08T13:24:13.387Z,7.57
2018-12-08T13:26:42.043Z,7.44
2018-12-08T13:29:10.711Z,7.40
2018-12-08T13:31:39.365Z,7.22
2018-12-08T13:34:39.808Z,7.33
2018-12-08T13:37:08.569Z,7.08
2018-12-08T13:39:37.187Z,7.18
2018-12-08T13:42:05.801Z,7.32
2018-12-08T13:44:38.836Z,7.35
2018-12-08T13:47:07.635Z,7.33
2018-12-08T13:49:36.370Z,7.34
2018-12-08T13:52:05.032Z,7.49
2018-12-08T13:54:51.229Z,7.14
2018-12-08T13:57:19.967Z,7.26
2018-12-08T13:59:54.862Z,7.39
2018-12-08T14:02:23.746Z,7.24
2018-12-08T14:04:52.353Z,7.41
2018-12-08T14:07:21.399Z,7.26
2018-12-08T14:09:50.079Z,7.21
2018-12-08T14:12:18.699Z,7.12
2018-12-08T14:14:47.380Z,7.13
2018-12-08T14:17:16.033Z,7.14
2018-12-08T14:19:44.872Z,7.19
2018-12-08T14:22:13.594Z,7.28
2018-12-08T14:24:42.314Z,7.25
2018-12-08T14:27:11.310Z,7.14
2018-12-08T14:29:40.069Z,7.24
2018-12-08T14:32:09.031Z,7.31
2018-12-08T14:34:37.668Z,7.10
2018-12-08T14:37:06.365Z,7.05
2018-12-08T14:39:35.181Z,7.07
2018-12-08T14:42:03.928Z,7.23
2018-12-08T14:44:32.529Z,7.21
2018-12-08T14:47:01.349Z,7.29
2018-12-08T14:49:30.060Z,7.21
2018-12-08T14:51:58.748Z,7.17
2018-12-08T14:54:27.401Z,7.37
2018-12-08T14:56:56.059Z,7.29
2018-12-08T14:59:24.668Z,7.25
2018-12-08T15:01:53.408Z,7.21
2018-12-08T15:04:22.139Z,7.17
2018-12-08T15:06:50.793Z,7.22
2018-12-08T15:09:19.543Z,7.16
2018-12-08T15:11:48.151Z,7.13
2018-12-08T15:14:16.743Z,7.23
2018-12-08T15:16:45.400Z,7.19
2018-12-08T15:19:14.016Z,7.38
2018-12-08T15:21:43.283Z,7.21
2018-12-08T15:24:11.903Z,7.19
2018-12-08T15:26:40.528Z,7.19
2018-12-08T15:29:09.252Z,7.18
2018-12-08T15:31:37.889Z,7.16
2018-12-08T15:34:06.581Z,7.16
2018-12-08T15:36:35.259Z,7.17
2018-12-08T15:39:06.863Z,7.28
2018-12-08T15:41:35.681Z,7.31
2018-12-08T15:44:04.444Z,7.27
2018-12-08T15:46:33.092Z,7.16
2018-12-08T15:49:01.811Z,7.13
2018-12-08T15:51:30.708Z,7.12
2018-12-08T15:54:00.606Z,7.11
2018-12-08T15:56:29.241Z,7.12
2018-12-08T15:58:57.840Z,7.08
2018-12-08T16:01:26.608Z,7.14
2018-12-08T16:03:55.338Z,7.14
2018-12-08T16:06:24.176Z,7.21
2018-12-08T16:08:52.938Z,7.34
2018-12-08T16:11:21.601Z,7.46
2018-12-08T16:13:50.340Z,7.37
2018-12-08T16:16:19.071Z,7.48
2018-12-08T16:18:47.781Z,7.45
2018-12-08T16:21:16.412Z,7.59
2018-12-08T16:23:45.256Z,7.40
2018-12-08T16:26:13.936Z,7.29
2018-12-08T16:28:42.554Z,7.42
2018-12-08T16:31:11.187Z,7.54
2018-12-08T16:33:39.853Z,7.49
2018-12-08T16:36:08.469Z,7.51
2018-12-08T16:38:37.076Z,7.56
2018-12-08T16:41:05.782Z,7.53
2018-12-08T16:43:34.415Z,7.52
2018-12-08T16:46:03.279Z,7.49
2018-12-08T16:48:31.911Z,7.56
2018-12-08T16:51:00.589Z,7.47
2018-12-08T16:53:29.246Z,7.50
2018-12-08T16:55:57.908Z,7.65
2018-12-08T16:58:26.700Z,7.64
2018-12-08T17:00:55.585Z,7.64
2018-12-08T17:03:24.192Z,7.63
2018-12-08T17:05:52.914Z,7.76
2018-12-08T17:08:22.023Z,7.75
2018-12-08T17:10:50.634Z,7.63
2018-12-08T17:13:19.511Z,7.71
2018-12-08T17:15:48.113Z,7.70
2018-12-08T17:18:16.756Z,7.69
2018-12-08T17:20:45.367Z,7.82
2018-12-08T17:23:14.091Z,7.80
2018-12-08T17:25:42.794Z,7.75
2018-12-08T17:28:11.528Z,7.76
2018-12-08T17:30:40.151Z,7.88
2018-12-08T17:33:09.020Z,7.73
2018-12-08T17:35:37.761Z,7.66
2018-12-08T17:38:06.561Z,7.72
2018-12-08T17:40:35.228Z,7.65
2018-12-08T17:43:03.832Z,7.76
2018-12-08T17:45:32.516Z,7.59
2018-12-08T17:48:01.119Z,7.62
2018-12-08T17:50:29.707Z,7.55
2018-12-08T17:52:58.505Z,7.65
2018-12-08T17:55:27.156Z,7.64
2018-12-08T17:57:55.795Z,7.58
2018-12-08T18:00:24.586Z,7.53
2018-12-08T18:02:53.208Z,7.58
2018-12-08T18:05:22.075Z,7.41
2018-12-08T18:07:50.819Z,7.48
2018-12-08T18:10:19.439Z,7.32
2018-12-08T18:12:48.089Z,7.32
2018-12-08T18:15:16.834Z,7.22
2018-12-08T18:17:45.554Z,7.46
2018-12-08T18:20:14.479Z,7.48
2018-12-08T18:22:43.436Z,7.31
2018-12-08T18:25:12.119Z,7.31
2018-12-08T18:27:40.931Z,7.34
2018-12-08T18:30:09.693Z,7.33
2018-12-08T18:32:38.312Z,7.29
2018-12-08T18:35:07.089Z,7.11
2018-12-08T18:37:35.737Z,7.19
2018-12-08T18:40:04.799Z,7.20
2018-12-08T18:42:33.515Z,7.08
2018-12-08T18:45:02.241Z,7.10
2018-12-08T18:47:30.893Z,7.08
2018-12-08T18:49:59.487Z,7.09
2018-12-08T18:52:28.153Z,7.15
2018-12-08T18:54:56.861Z,7.26
2018-12-08T18:57:25.494Z,7.16
2018-12-08T18:59:54.124Z,7.21
2018-12-08T19:02:22.807Z,7.22
2018-12-08T19:04:51.496Z,7.33
2018-12-08T19:07:20.248Z,7.18
2018-12-08T19:09:48.863Z,7.15
2018-12-08T19:12:17.573Z,7.09
2018-12-08T19:14:46.266Z,7.16
2018-12-08T19:17:14.886Z,7.12
2018-12-08T19:19:43.668Z,7.15
2018-12-08T19:22:12.269Z,7.08
2018-12-08T19:24:40.985Z,7.25
2018-12-08T19:27:09.736Z,7.43
2018-12-08T19:29:38.431Z,7.47
2018-12-08T19:32:07.027Z,7.28
2018-12-08T19:34:35.800Z,7.43
2018-12-08T19:37:04.422Z,7.34
2018-12-08T19:39:33.059Z,7.28
2018-12-08T19:42:01.782Z,7.22
2018-12-08T19:44:30.412Z,7.40
2018-12-08T19:46:59.041Z,7.40
2018-12-08T19:49:27.804Z,7.37
2018-12-08T19:51:56.487Z,7.31
2018-12-08T19:54:25.145Z,7.30
2018-12-08T19:56:53.792Z,7.44
2018-12-08T19:59:22.407Z,7.49
2018-12-08T20:01:51.037Z,7.65
2018-12-08T20:04:19.697Z,7.70
2018-12-08T20:06:48.336Z,7.75
2018-12-08T20:09:16.972Z,7.86
2018-12-08T20:11:45.639Z,7.96
2018-12-08T20:14:14.275Z,7.80
2018-12-08T20:16:43.037Z,7.82
2018-12-08T20:19:11.794Z,7.90
2018-12-08T20:21:40.481Z,7.79
2018-12-08T20:24:09.581Z,7.97
2018-12-08T20:26:38.773Z,7.78
2018-12-08T20:29:07.503Z,7.74
2018-12-08T20:31:36.349Z,7.80
2018-12-08T20:34:05.137Z,7.87
2018-12-08T20:36:33.875Z,7.91
2018-12-08T20:39:02.717Z,7.73
2018-12-08T20:41:31.347Z,7.85
2018-12-08T20:44:00.111Z,7.74
2018-12-08T20:46:28.796Z,7.70
2018-12-08T20:48:57.416Z,7.69
2018-12-08T20:51:26.108Z,7.68
2018-12-08T20:53:54.717Z,7.64
2018-12-08T20:56:23.369Z,7.61
2018-12-08T20:58:52.033Z,7.66
2018-12-08T21:01:20.768Z,7.75
2018-12-08T21:03:49.481Z,7.70
2018-12-08T21:06:18.171Z,7.67
2018-12-08T21:08:46.823Z,7.72
2018-12-08T21:11:15.493Z,7.89
2018-12-08T21:13:44.123Z,7.80
2018-12-08T21:16:12.719Z,7.81
2018-12-08T21:18:41.432Z,7.87
2018-12-08T21:21:10.048Z,7.81
2018-12-08T21:23:39.066Z,7.79
2018-12-08T21:26:07.891Z,7.90
2018-12-08T21:28:36.648Z,7.72
2018-12-08T21:31:05.500Z,7.65
2018-12-08T21:33:34.449Z,7.66
2018-12-08T21:36:03.137Z,7.63
2018-12-08T21:38:31.843Z,7.73
2018-12-08T21:41:00.496Z,7.65
2018-12-08T21:43:29.197Z,7.76
2018-12-08T21:45:57.912Z,7.61
2018-12-08T21:48:26.578Z,7.51
2018-12-08T21:50:55.309Z,7.73
2018-12-08T21:53:23.955Z,7.72
2018-12-08T21:55:52.562Z,7.47
2018-12-08T21:58:21.205Z,7.41
2018-12-08T22:00:49.981Z,7.59
2018-12-08T22:03:18.772Z,7.65
2018-12-08T22:05:47.484Z,7.69
2018-12-08T22:08:16.107Z,7.63
2018-12-08T22:10:44.847Z,7.69
2018-12-08T22:13:13.517Z,7.60
2018-12-08T22:15:42.149Z,7.66
2018-12-08T22:18:10.803Z,7.66
2018-12-08T22:20:39.448Z,7.55
2018-12-08T22:23:08.059Z,7.58
2018-12-08T22:25:36.756Z,7.59
2018-12-08T22:28:05.378Z,7.76
2018-12-08T22:30:33.981Z,7.68
2018-12-08T22:33:02.630Z,7.67
2018-12-08T22:35:31.607Z,7.61
2018-12-08T22:38:00.355Z,7.69
2018-12-08T22:40:29.122Z,7.78
2018-12-08T22:42:57.769Z,7.66
2018-12-08T22:45:26.406Z,7.62
2018-12-08T22:47:55.043Z,7.68
2018-12-08T22:50:23.677Z,7.79
2018-12-08T22:52:52.304Z,7.79
2018-12-08T22:55:21.172Z,7.82
2018-12-08T22:57:49.888Z,7.89
2018-12-08T23:00:29.720Z,7.98
2018-12-08T23:02:58.523Z,7.88
2018-12-08T23:05:27.303Z,8.01
2018-12-08T23:07:55.924Z,7.90
2018-12-08T23:10:24.580Z,7.86
2018-12-08T23:12:53.276Z,7.78
2018-12-08T23:15:22.092Z,7.97
2018-12-08T23:17:50.853Z,7.95
2018-12-08T23:20:19.520Z,7.89
2018-12-08T23:22:48.117Z,7.71
2018-12-08T23:25:16.798Z,7.71
2018-12-08T23:27:45.819Z,7.86
2018-12-08T23:30:14.569Z,7.86
2018-12-08T23:32:43.249Z,7.90
2018-12-08T23:35:11.993Z,7.95
2018-12-08T23:37:40.756Z,7.93
2018-12-08T23:40:09.493Z,7.95
2018-12-08T23:42:38.376Z,7.97
2018-12-08T23:45:07.552Z,8.13
2018-12-08T23:47:36.240Z,8.07
2018-12-08T23:50:05.935Z,7.97
2018-12-08T23:52:34.656Z,7.98
2018-12-08T23:55:03.338Z,7.91
2018-12-08T23:57:31.988Z,7.94
